createdAt,value
2023-01-12T00:01:52.446Z,-4.97
2023-01-12T00:04:19.585Z,-4.88
2023-01-12T00:06:46.697Z,-4.79
2023-01-12T00:09:16.041Z,-4.71
2023-01-12T00:11:43.257Z,-4.61
2023-01-12T00:17:46.207Z,-4.58
2023-01-12T00:20:13.221Z,-4.53
2023-01-12T00:22:40.159Z,-4.57
2023-01-12T00:25:07.813Z,-4.67
2023-01-12T00:27:34.758Z,-4.75
2023-01-12T00:30:01.710Z,-4.83
2023-01-12T00:32:28.753Z,-4.90
2023-01-12T00:34:55.797Z,-4.99
2023-01-12T00:37:23.051Z,-5.08
2023-01-12T00:40:02.563Z,-5.14
2023-01-12T00:42:48.633Z,-5.21
2023-01-12T00:45:21.673Z,-5.29
2023-01-12T00:47:48.620Z,-5.34
2023-01-12T00:50:16.889Z,-5.40
2023-01-12T00:52:45.684Z,-5.42
2023-01-12T00:55:12.735Z,-5.32
2023-01-12T00:57:40.292Z,-5.24
2023-01-12T01:00:08.134Z,-5.16
2023-01-12T01:02:37.407Z,-5.07
2023-01-12T01:05:04.816Z,-4.96
2023-01-12T01:07:31.968Z,-4.87
2023-01-12T01:09:58.918Z,-4.77
2023-01-12T01:12:25.971Z,-4.69
2023-01-12T01:14:53.825Z,-4.61
2023-01-12T01:17:20.768Z,-4.61
2023-01-12T01:19:48.535Z,-4.61
2023-01-12T01:22:15.578Z,-4.64
2023-01-12T01:24:42.423Z,-4.70
2023-01-12T01:27:09.297Z,-4.77
2023-01-12T01:29:36.332Z,-4.86
2023-01-12T01:32:03.461Z,-4.96
2023-01-12T01:34:30.407Z,-5.03
2023-01-12T01:36:57.354Z,-5.10
2023-01-12T01:39:24.299Z,-5.18
2023-01-12T01:41:51.560Z,-5.24
2023-01-12T01:44:33.139Z,-5.27
2023-01-12T01:47:03.062Z,-5.30
2023-01-12T01:49:41.881Z,-5.32
2023-01-12T01:52:12.441Z,-5.36
2023-01-12T01:54:59.016Z,-5.35
2023-01-12T01:57:29.050Z,-5.21
2023-01-12T01:59:55.985Z,-5.11
2023-01-12T02:02:23.698Z,-5.00
2023-01-12T02:04:50.660Z,-4.88
2023-01-12T02:07:17.530Z,-4.77
2023-01-12T02:09:44.489Z,-4.63
2023-01-12T02:12:30.158Z,-4.52
2023-01-12T04:18:07.005Z,-4.29
2023-01-12T04:20:34.523Z,-4.11
2023-01-12T04:23:01.674Z,-4.02
2023-01-12T04:25:28.623Z,-3.87
2023-01-12T04:27:57.167Z,-3.77
2023-01-12T04:30:27.298Z,-3.69
2023-01-12T04:32:55.292Z,-3.57
2023-01-12T04:35:24.391Z,-3.43
2023-01-12T04:37:51.639Z,-3.32
2023-01-12T04:40:18.900Z,-3.28
2023-01-12T04:43:07.270Z,-3.28
2023-01-12T04:45:37.168Z,-3.27
2023-01-12T04:48:05.281Z,-3.36
2023-01-12T04:50:32.397Z,-3.38
2023-01-12T04:53:02.127Z,-3.43
2023-01-12T04:55:29.543Z,-3.49
2023-01-12T04:57:57.383Z,-3.55
2023-01-12T05:00:24.418Z,-3.62
2023-01-12T05:02:58.173Z,-3.69
2023-01-12T05:05:26.086Z,-3.74
2023-01-12T05:08:11.714Z,-3.77
2023-01-12T05:10:38.657Z,-3.80
2023-01-12T05:13:07.753Z,-3.83
2023-01-12T05:15:34.705Z,-3.87
2023-01-12T05:18:01.642Z,-3.91
2023-01-12T05:20:28.435Z,-3.94
2023-01-12T05:22:55.436Z,-3.88
2023-01-12T05:25:22.684Z,-3.78
2023-01-12T05:27:49.631Z,-3.67
2023-01-12T05:30:16.655Z,-3.53
2023-01-12T05:32:43.931Z,-3.42
2023-01-12T05:35:10.845Z,-3.30
2023-01-12T05:37:37.684Z,-3.23
2023-01-12T05:40:05.395Z,-3.21
2023-01-12T05:42:51.065Z,-3.20
2023-01-12T05:45:18.011Z,-3.22
2023-01-12T05:47:44.970Z,-3.24
2023-01-12T05:50:11.806Z,-3.30
2023-01-12T05:52:38.753Z,-3.41
2023-01-12T05:55:06.302Z,-3.45
2023-01-12T05:57:33.248Z,-3.44
2023-01-12T06:00:00.205Z,-3.46
2023-01-12T06:02:27.252Z,-3.49
2023-01-12T06:04:54.329Z,-3.55
2023-01-12T06:07:21.265Z,-3.61
2023-01-12T06:09:48.124Z,-3.65
2023-01-12T06:12:33.967Z,-3.66
2023-01-12T06:15:01.019Z,-3.66
2023-01-12T06:17:27.961Z,-3.67
2023-01-12T06:19:54.916Z,-3.61
2023-01-12T06:22:21.952Z,-3.47
2023-01-12T06:24:49.385Z,-3.36
2023-01-12T06:27:16.974Z,-3.24
2023-01-12T06:29:44.017Z,-3.10
2023-01-12T06:32:13.216Z,-2.95
2023-01-12T06:34:40.161Z,-2.89
2023-01-12T06:37:12.086Z,-2.87
2023-01-12T06:39:41.396Z,-2.84
2023-01-12T06:42:27.115Z,-2.82
2023-01-12T06:44:54.770Z,-2.82
2023-01-12T06:47:22.329Z,-2.84
2023-01-12T06:49:51.732Z,-2.85
2023-01-12T06:52:23.390Z,-2.88
2023-01-12T06:54:51.461Z,-2.90
2023-01-12T06:57:18.418Z,-2.94
2023-01-12T06:59:45.664Z,-2.99
2023-01-12T07:02:13.580Z,-3.03
2023-01-12T07:04:41.031Z,-3.06
2023-01-12T07:07:08.449Z,-3.07
2023-01-12T07:09:35.693Z,-3.06
2023-01-12T07:12:03.563Z,-2.97
2023-01-12T07:14:30.609Z,-2.84
2023-01-12T07:16:57.553Z,-2.73
2023-01-12T07:19:24.509Z,-2.64
2023-01-12T07:21:51.441Z,-2.56
2023-01-12T07:24:18.603Z,-2.47
2023-01-12T07:26:48.097Z,-2.42
2023-01-12T07:29:15.247Z,-2.41
2023-01-12T07:31:42.295Z,-2.41
2023-01-12T07:34:09.241Z,-2.43
2023-01-12T07:36:36.296Z,-2.43
2023-01-12T07:39:03.340Z,-2.44
2023-01-12T07:41:49.022Z,-2.46
2023-01-12T07:44:16.290Z,-2.46
2023-01-12T07:46:43.718Z,-2.47
2023-01-12T07:49:10.880Z,-2.49
2023-01-12T07:51:37.827Z,-2.51
2023-01-12T07:54:04.771Z,-2.54
2023-01-12T07:56:31.719Z,-2.54
2023-01-12T08:11:19.736Z,-1.92
2023-01-12T08:13:46.887Z,-1.37
2023-01-12T08:16:19.774Z,-1.43
2023-01-12T08:18:53.450Z,-1.56
2023-01-12T08:21:21.853Z,-1.66
2023-01-12T08:23:50.438Z,-1.75
2023-01-12T08:26:24.151Z,-1.76
2023-01-12T08:28:58.151Z,-1.75
2023-01-12T08:31:25.232Z,-1.76
2023-01-12T08:33:53.683Z,-1.73
2023-01-12T08:36:20.695Z,-1.66
2023-01-12T08:38:48.805Z,-1.62
2023-01-12T08:41:34.074Z,-1.65
2023-01-12T08:44:08.541Z,-1.68
2023-01-12T08:46:38.978Z,-1.75
2023-01-12T08:49:11.504Z,-1.86
2023-01-12T08:51:41.315Z,-1.93
2023-01-12T08:54:09.446Z,-1.97
2023-01-12T08:56:36.737Z,-2.01
2023-01-12T08:59:04.197Z,-2.07
2023-01-12T09:01:31.265Z,-2.11
2023-01-12T09:03:58.703Z,-2.14
2023-01-12T09:06:26.874Z,-2.19
2023-01-12T09:08:58.077Z,-2.25
2023-01-12T09:11:25.511Z,-2.32
2023-01-12T09:13:52.526Z,-2.31
2023-01-12T09:16:20.276Z,-2.21
2023-01-12T09:18:47.455Z,-2.12
2023-01-12T09:21:16.129Z,-2.01
2023-01-12T09:23:43.580Z,-1.91
2023-01-12T09:26:11.195Z,-1.85
2023-01-12T09:28:39.111Z,-1.80
2023-01-12T09:31:10.731Z,-1.80
2023-01-12T09:33:38.531Z,-1.87
2023-01-12T09:36:07.958Z,-1.92
2023-01-12T09:38:35.810Z,-1.95
2023-01-12T09:41:41.349Z,-2.01
2023-01-12T09:45:22.844Z,-2.08
2023-01-12T09:47:53.967Z,-2.13
2023-01-12T09:50:28.373Z,-2.17
2023-01-12T09:52:58.117Z,-2.18
2023-01-12T09:55:26.410Z,-2.17
2023-01-12T09:57:53.450Z,-2.17
2023-01-12T10:00:20.710Z,-2.10
2023-01-12T10:02:54.834Z,-1.97
2023-01-12T10:05:44.278Z,-1.86
2023-01-12T10:08:35.090Z,-1.76
2023-01-12T10:11:11.350Z,-1.70
2023-01-12T10:13:53.586Z,-1.68
2023-01-12T10:16:49.917Z,-1.71
2023-01-12T10:19:32.295Z,-1.75
2023-01-12T10:22:00.573Z,-1.77
2023-01-12T10:24:27.524Z,-1.75
2023-01-12T10:27:03.289Z,-1.76
2023-01-12T10:29:31.354Z,-1.82
2023-01-12T10:31:58.318Z,-1.87
2023-01-12T10:34:25.176Z,-1.91
2023-01-12T10:36:58.010Z,-1.94
2023-01-12T10:39:40.735Z,-1.97
2023-01-12T10:42:55.527Z,-2.04
2023-01-12T10:45:23.679Z,-2.07
2023-01-12T10:47:53.663Z,-2.09
2023-01-12T10:50:23.710Z,-2.06
2023-01-12T10:52:58.594Z,-1.95
2023-01-12T10:55:25.729Z,-1.85
2023-01-12T10:57:53.047Z,-1.74
2023-01-12T11:00:22.442Z,-1.66
2023-01-12T11:02:50.253Z,-1.63
2023-01-12T11:05:26.474Z,-1.62
2023-01-12T11:07:53.416Z,-1.63
2023-01-12T11:10:27.539Z,-1.64
2023-01-12T11:13:03.716Z,-1.65
2023-01-12T11:15:31.359Z,-1.68
2023-01-12T11:18:04.455Z,-1.72
2023-01-12T11:20:38.134Z,-1.73
2023-01-12T11:23:09.492Z,-1.79
2023-01-12T11:25:48.017Z,-1.87
2023-01-12T11:28:23.886Z,-1.92
2023-01-12T11:30:53.803Z,-1.93
2023-01-12T11:33:30.450Z,-1.94
2023-01-12T11:36:06.930Z,-1.95
2023-01-12T11:38:36.540Z,-1.93
2023-01-12T11:41:04.194Z,-1.93
2023-01-12T11:43:52.599Z,-1.92
2023-01-12T11:46:37.298Z,-1.81
2023-01-12T11:49:12.084Z,-1.66
2023-01-12T11:51:39.083Z,-1.56
2023-01-12T11:54:06.533Z,-1.45
2023-01-12T11:56:43.802Z,-1.35
2023-01-12T15:57:48.459Z,-1.78
2023-01-12T16:00:17.220Z,-1.75
2023-01-12T16:02:48.895Z,-1.77
2023-01-12T16:05:21.658Z,-1.79
2023-01-12T16:07:49.005Z,-1.84
2023-01-12T16:10:16.704Z,-1.88
2023-01-12T16:12:44.505Z,-1.93
2023-01-12T16:15:20.012Z,-1.90
2023-01-12T16:17:47.263Z,-1.82
2023-01-12T16:20:16.317Z,-1.77
2023-01-12T16:22:43.500Z,-1.69
2023-01-12T16:25:10.861Z,-1.61
2023-01-12T16:27:38.728Z,-1.57
2023-01-12T16:30:07.279Z,-1.53
2023-01-12T16:32:34.566Z,-1.53
2023-01-12T16:35:01.406Z,-1.55
2023-01-12T16:37:33.226Z,-1.58
2023-01-12T16:40:00.821Z,-1.60
2023-01-12T16:42:27.900Z,-1.64
2023-01-12T16:44:54.752Z,-1.67
2023-01-12T16:47:21.883Z,-1.72
2023-01-12T16:49:49.834Z,-1.77
2023-01-12T16:52:17.502Z,-1.82
2023-01-12T16:54:44.546Z,-1.84
2023-01-12T16:57:12.207Z,-1.88
2023-01-12T16:59:39.335Z,-1.93
2023-01-12T17:02:08.444Z,-1.99
2023-01-12T17:04:36.320Z,-2.04
2023-01-12T17:07:04.600Z,-2.09
2023-01-12T17:09:32.157Z,-2.12
2023-01-12T17:11:59.924Z,-2.15
2023-01-12T17:14:27.990Z,-2.16
2023-01-12T17:16:56.941Z,-2.18
2023-01-12T17:19:25.374Z,-2.11
2023-01-12T17:21:54.328Z,-2.00
2023-01-12T17:24:21.811Z,-1.90
2023-01-12T17:26:50.420Z,-1.80
2023-01-12T17:29:17.449Z,-1.68
2023-01-12T17:31:45.208Z,-1.60
2023-01-12T17:34:13.078Z,-1.58
2023-01-12T17:36:40.119Z,-1.57
2023-01-12T17:39:07.687Z,-1.59
2023-01-12T17:41:53.471Z,-1.63
2023-01-12T17:44:20.517Z,-1.68
2023-01-12T17:46:47.466Z,-1.72
2023-01-12T17:49:14.623Z,-1.77
2023-01-12T17:51:41.564Z,-1.83
2023-01-12T17:54:10.773Z,-1.91
2023-01-12T20:03:52.222Z,-2.09
2023-01-12T20:06:19.305Z,-1.92
2023-01-12T20:08:48.447Z,-1.91
2023-01-12T20:11:16.417Z,-1.95
2023-01-12T20:13:43.360Z,-2.00
2023-01-12T20:16:10.686Z,-2.06
2023-01-12T20:18:37.869Z,-2.11
2023-01-12T20:21:08.915Z,-2.16
2023-01-12T20:23:36.057Z,-2.21
2023-01-12T20:26:06.905Z,-2.24
2023-01-12T20:28:34.048Z,-2.27
2023-01-12T20:31:00.987Z,-2.30
2023-01-12T20:33:28.545Z,-2.33
2023-01-12T20:35:55.503Z,-2.35
2023-01-12T20:38:22.864Z,-2.37
2023-01-12T20:40:50.219Z,-2.34
2023-01-12T20:43:17.099Z,-2.23
2023-01-12T20:45:44.412Z,-2.13
2023-01-12T20:48:13.806Z,-2.01
2023-01-12T20:50:44.919Z,-1.90
2023-01-12T20:53:12.203Z,-1.85
2023-01-12T20:55:46.227Z,-1.82
2023-01-12T20:58:13.156Z,-1.80
2023-01-12T21:00:40.595Z,-1.81
2023-01-12T21:03:07.812Z,-1.83
2023-01-12T21:05:35.222Z,-1.87
2023-01-12T21:08:08.011Z,-1.93
2023-01-12T21:10:37.203Z,-1.98
2023-01-12T21:13:07.230Z,-2.02
2023-01-12T21:15:34.164Z,-2.07
2023-01-12T21:18:01.129Z,-2.12
2023-01-12T21:20:28.366Z,-2.16
2023-01-12T21:22:55.219Z,-2.19
2023-01-12T21:25:26.151Z,-2.23
2023-01-12T21:27:53.054Z,-2.27
2023-01-12T21:30:20.035Z,-2.31
2023-01-12T21:32:48.789Z,-2.35
2023-01-12T21:35:18.022Z,-2.37
2023-01-12T21:37:47.322Z,-2.33
2023-01-12T21:40:14.673Z,-2.21
2023-01-12T21:43:00.468Z,-2.12
2023-01-12T21:45:27.555Z,-2.02
2023-01-12T21:47:55.578Z,-1.94
2023-01-12T21:50:22.940Z,-1.85
2023-01-12T21:52:49.889Z,-1.78
2023-01-12T21:55:19.082Z,-1.77
2023-01-12T21:57:46.639Z,-1.77
2023-01-12T22:00:13.995Z,-1.77
2023-01-12T22:49:11.058Z,-1.92
2023-01-12T22:51:38.513Z,-1.95
2023-01-12T22:54:05.664Z,-1.99
2023-01-12T22:56:32.714Z,-2.03
2023-01-12T22:59:00.222Z,-2.08
2023-01-12T23:01:28.237Z,-2.06
2023-01-12T23:03:56.311Z,-1.97
2023-01-12T23:06:24.090Z,-1.88
2023-01-12T23:08:51.259Z,-1.78
2023-01-12T23:11:20.381Z,-1.69
2023-01-12T23:13:47.411Z,-1.60
2023-01-12T23:16:15.289Z,-1.51
2023-01-12T23:18:43.745Z,-1.46
2023-01-12T23:21:15.767Z,-1.44
2023-01-12T23:23:44.674Z,-1.43
2023-01-12T23:26:13.169Z,-1.46
2023-01-12T23:28:42.495Z,-1.52
2023-01-12T23:31:11.280Z,-1.56
2023-01-12T23:33:39.671Z,-1.62
2023-01-12T23:36:14.492Z,-1.68
2023-01-12T23:38:42.001Z,-1.74
2023-01-12T23:41:17.660Z,-1.79
2023-01-12T23:43:48.103Z,-1.84
2023-01-12T23:46:16.422Z,-1.90
2023-01-12T23:48:44.083Z,-1.96
2023-01-12T23:51:11.482Z,-2.02
2023-01-12T23:53:38.340Z,-2.06
2023-01-12T23:56:07.015Z,-2.08
2023-01-12T23:58:35.596Z,-2.12
